sensor_id;sensor_type;location;lat;lon;timestamp;temperature;humidity
20155;DHT22;10238;49.556;10.956;2022-10-16T00:00:13;14.40;99.90
20155;DHT22;10238;49.556;10.956;2022-10-16T00:03:02;14.40;99.90
20155;DHT22;10238;49.556;10.956;2022-10-16T00:05:49;14.40;99.90
20155;DHT22;10238;49.556;10.956;2022-10-16T00:08:39;14.40;99.90
20155;DHT22;10238;49.556;10.956;2022-10-16T00:11:28;14.40;99.90
20155;DHT22;10238;49.556;10.956;2022-10-16T00:14:19;14.40;99.90
20155;DHT22;10238;49.556;10.956;2022-10-16T00:17:09;14.40;99.90
20155;DHT22;10238;49.556;10.956;2022-10-16T00:19:59;14.40;99.90
20155;DHT22;10238;49.556;10.956;2022-10-16T00:22:47;14.30;99.90
20155;DHT22;10238;49.556;10.956;2022-10-16T00:25:36;14.30;99.90
20155;DHT22;10238;49.556;10.956;2022-10-16T00:28:24;14.30;99.90
20155;DHT22;10238;49.556;10.956;2022-10-16T00:31:12;14.30;99.90
20155;DHT22;10238;49.556;10.956;2022-10-16T00:34:00;14.30;99.90
20155;DHT22;10238;49.556;10.956;2022-10-16T00:36:48;14.30;99.90
20155;DHT22;10238;49.556;10.956;2022-10-16T00:39:36;14.30;99.90
20155;DHT22;10238;49.556;10.956;2022-10-16T00:42:25;14.30;99.90
20155;DHT22;10238;49.556;10.956;2022-10-16T00:45:15;14.20;99.90
20155;DHT22;10238;49.556;10.956;2022-10-16T00:48:03;14.30;99.90
20155;DHT22;10238;49.556;10.956;2022-10-16T00:50:52;14.20;99.90
20155;DHT22;10238;49.556;10.956;2022-10-16T00:53:42;14.20;99.90
20155;DHT22;10238;49.556;10.956;2022-10-16T00:56:32;14.10;99.90
20155;DHT22;10238;49.556;10.956;2022-10-16T00:59:26;14.20;99.90
20155;DHT22;10238;49.556;10.956;2022-10-16T01:02:16;14.20;99.90
20155;DHT22;10238;49.556;10.956;2022-10-16T01:05:05;14.20;99.90
20155;DHT22;10238;49.556;10.956;2022-10-16T01:08:00;14.20;99.90
20155;DHT22;10238;49.556;10.956;2022-10-16T01:10:59;14.10;99.90
20155;DHT22;10238;49.556;10.956;2022-10-16T01:14:02;14.10;99.90
20155;DHT22;10238;49.556;10.956;2022-10-16T01:17:02;14.10;99.90
20155;DHT22;10238;49.556;10.956;2022-10-16T01:20:03;14.20;99.90
20155;DHT22;10238;49.556;10.956;2022-10-16T01:26:24;14.20;99.90
20155;DHT22;10238;49.556;10.956;2022-10-16T01:29:28;14.20;99.90
20155;DHT22;10238;49.556;10.956;2022-10-16T01:32:26;14.20;99.90
20155;DHT22;10238;49.556;10.956;2022-10-16T01:35:25;14.20;99.90
20155;DHT22;10238;49.556;10.956;2022-10-16T01:38:20;14.30;99.90
20155;DHT22;10238;49.556;10.956;2022-10-16T01:41:17;14.30;99.90
20155;DHT22;10238;49.556;10.956;2022-10-16T01:44:17;14.20;99.90
20155;DHT22;10238;49.556;10.956;2022-10-16T01:47:13;14.30;99.90
20155;DHT22;10238;49.556;10.956;2022-10-16T01:50:03;14.30;99.90
20155;DHT22;10238;49.556;10.956;2022-10-16T01:52:55;14.30;99.90
20155;DHT22;10238;49.556;10.956;2022-10-16T01:55:47;14.20;99.90
20155;DHT22;10238;49.556;10.956;2022-10-16T02:01:32;14.70;99.90
20155;DHT22;10238;49.556;10.956;2022-10-16T02:04:29;14.30;99.90
20155;DHT22;10238;49.556;10.956;2022-10-16T02:07:20;14.40;99.90
20155;DHT22;10238;49.556;10.956;2022-10-16T02:10:09;14.50;99.90
20155;DHT22;10238;49.556;10.956;2022-10-16T02:13:00;14.40;99.90
20155;DHT22;10238;49.556;10.956;2022-10-16T02:15:52;14.80;99.90
20155;DHT22;10238;49.556;10.956;2022-10-16T02:18:40;14.40;99.90
20155;DHT22;10238;49.556;10.956;2022-10-16T02:21:35;14.30;99.90
20155;DHT22;10238;49.556;10.956;2022-10-16T02:24:33;14.50;99.90
20155;DHT22;10238;49.556;10.956;2022-10-16T02:27:29;14.50;99.90
20155;DHT22;10238;49.556;10.956;2022-10-16T02:30:27;14.50;99.90
20155;DHT22;10238;49.556;10.956;2022-10-16T02:33:22;14.50;99.90
20155;DHT22;10238;49.556;10.956;2022-10-16T02:36:12;14.60;99.90
20155;DHT22;10238;49.556;10.956;2022-10-16T02:39:03;14.40;99.90
20155;DHT22;10238;49.556;10.956;2022-10-16T02:41:51;14.20;99.90
20155;DHT22;10238;49.556;10.956;2022-10-16T02:44:39;14.70;99.90
20155;DHT22;10238;49.556;10.956;2022-10-16T02:47:27;14.10;99.90
20155;DHT22;10238;49.556;10.956;2022-10-16T02:50:15;14.40;99.90
20155;DHT22;10238;49.556;10.956;2022-10-16T02:53:03;14.40;99.90
20155;DHT22;10238;49.556;10.956;2022-10-16T02:55:52;14.50;99.90
20155;DHT22;10238;49.556;10.956;2022-10-16T02:58:40;14.40;99.90
20155;DHT22;10238;49.556;10.956;2022-10-16T03:01:27;14.40;99.90
20155;DHT22;10238;49.556;10.956;2022-10-16T03:04:15;14.10;99.90
20155;DHT22;10238;49.556;10.956;2022-10-16T03:07:03;14.70;99.90
20155;DHT22;10238;49.556;10.956;2022-10-16T03:09:51;14.40;99.90
20155;DHT22;10238;49.556;10.956;2022-10-16T03:12:40;14.30;99.90
20155;DHT22;10238;49.556;10.956;2022-10-16T03:15:27;14.30;99.90
20155;DHT22;10238;49.556;10.956;2022-10-16T03:18:15;14.40;99.90
20155;DHT22;10238;49.556;10.956;2022-10-16T03:21:03;14.40;99.90
20155;DHT22;10238;49.556;10.956;2022-10-16T03:23:51;14.30;99.90
20155;DHT22;10238;49.556;10.956;2022-10-16T03:26:38;14.30;99.90
20155;DHT22;10238;49.556;10.956;2022-10-16T03:29:27;14.40;99.90
20155;DHT22;10238;49.556;10.956;2022-10-16T03:32:15;14.20;99.90
20155;DHT22;10238;49.556;10.956;2022-10-16T03:35:06;14.30;99.90
20155;DHT22;10238;49.556;10.956;2022-10-16T03:37:54;14.20;99.90
20155;DHT22;10238;49.556;10.956;2022-10-16T03:40:42;14.20;99.90
20155;DHT22;10238;49.556;10.956;2022-10-16T03:43:30;14.10;99.90
20155;DHT22;10238;49.556;10.956;2022-10-16T03:46:19;14.10;99.90
20155;DHT22;10238;49.556;10.956;2022-10-16T03:49:06;14.10;99.90
20155;DHT22;10238;49.556;10.956;2022-10-16T03:51:55;14.20;99.90
20155;DHT22;10238;49.556;10.956;2022-10-16T03:54:42;14.20;99.90
20155;DHT22;10238;49.556;10.956;2022-10-16T03:57:30;14.20;99.90
20155;DHT22;10238;49.556;10.956;2022-10-16T04:00:18;14.20;99.90
20155;DHT22;10238;49.556;10.956;2022-10-16T04:03:07;14.10;99.90
20155;DHT22;10238;49.556;10.956;2022-10-16T04:05:55;14.30;99.90
20155;DHT22;10238;49.556;10.956;2022-10-16T04:08:43;14.20;99.90
20155;DHT22;10238;49.556;10.956;2022-10-16T04:11:31;14.20;99.90
20155;DHT22;10238;49.556;10.956;2022-10-16T04:14:19;14.20;99.90
20155;DHT22;10238;49.556;10.956;2022-10-16T04:17:06;14.30;99.90
20155;DHT22;10238;49.556;10.956;2022-10-16T04:19:55;14.30;99.90
20155;DHT22;10238;49.556;10.956;2022-10-16T04:22:42;14.20;99.90
20155;DHT22;10238;49.556;10.956;2022-10-16T19:00:19;17.00;99.90
20155;DHT22;10238;49.556;10.956;2022-10-16T19:03:09;17.00;99.90
20155;DHT22;10238;49.556;10.956;2022-10-16T19:06:01;16.90;99.90
20155;DHT22;10238;49.556;10.956;2022-10-16T19:08:52;16.80;99.90
20155;DHT22;10238;49.556;10.956;2022-10-16T19:11:42;16.70;99.90
20155;DHT22;10238;49.556;10.956;2022-10-16T19:14:32;16.60;99.90
20155;DHT22;10238;49.556;10.956;2022-10-16T19:17:20;16.60;99.90
20155;DHT22;10238;49.556;10.956;2022-10-16T19:20:08;16.50;99.90
20155;DHT22;10238;49.556;10.956;2022-10-16T19:22:58;16.40;99.90
20155;DHT22;10238;49.556;10.956;2022-10-16T19:25:45;16.30;99.90
20155;DHT22;10238;49.556;10.956;2022-10-16T19:28:43;16.10;99.90
20155;DHT22;10238;49.556;10.956;2022-10-16T19:31:33;16.10;99.90
20155;DHT22;10238;49.556;10.956;2022-10-16T19:34:22;16.00;99.90
20155;DHT22;10238;49.556;10.956;2022-10-16T19:37:10;15.90;99.90
20155;DHT22;10238;49.556;10.956;2022-10-16T19:39:59;15.80;99.90
20155;DHT22;10238;49.556;10.956;2022-10-16T19:42:47;15.70;99.90
20155;DHT22;10238;49.556;10.956;2022-10-16T19:45:35;15.60;99.90
20155;DHT22;10238;49.556;10.956;2022-10-16T19:48:24;15.60;99.90
20155;DHT22;10238;49.556;10.956;2022-10-16T19:51:18;15.50;99.90
20155;DHT22;10238;49.556;10.956;2022-10-16T19:54:09;15.40;99.90
20155;DHT22;10238;49.556;10.956;2022-10-16T19:56:59;15.30;99.90
20155;DHT22;10238;49.556;10.956;2022-10-16T20:00:01;15.30;99.90
20155;DHT22;10238;49.556;10.956;2022-10-16T20:02:50;15.20;99.90
20155;DHT22;10238;49.556;10.956;2022-10-16T20:05:51;15.10;99.90
20155;DHT22;10238;49.556;10.956;2022-10-16T20:08:43;15.10;99.90
20155;DHT22;10238;49.556;10.956;2022-10-16T20:11:36;15.00;99.90
20155;DHT22;10238;49.556;10.956;2022-10-16T20:14:31;14.90;99.90
20155;DHT22;10238;49.556;10.956;2022-10-16T20:17:21;14.90;99.90
20155;DHT22;10238;49.556;10.956;2022-10-16T20:20:12;14.80;99.90
20155;DHT22;10238;49.556;10.956;2022-10-16T20:23:01;14.70;99.90
20155;DHT22;10238;49.556;10.956;2022-10-16T20:25:49;14.70;99.90
20155;DHT22;10238;49.556;10.956;2022-10-16T20:28:39;14.50;99.90
20155;DHT22;10238;49.556;10.956;2022-10-16T20:31:28;14.60;99.90
20155;DHT22;10238;49.556;10.956;2022-10-16T20:34:17;14.50;99.90
20155;DHT22;10238;49.556;10.956;2022-10-16T20:37:05;14.40;99.90
20155;DHT22;10238;49.556;10.956;2022-10-16T20:39:54;14.40;99.90
20155;DHT22;10238;49.556;10.956;2022-10-16T20:42:41;14.30;99.90
20155;DHT22;10238;49.556;10.956;2022-10-16T20:45:29;14.20;99.90
20155;DHT22;10238;49.556;10.956;2022-10-16T20:48:17;14.20;99.90
20155;DHT22;10238;49.556;10.956;2022-10-16T20:51:11;14.10;99.90
20155;DHT22;10238;49.556;10.956;2022-10-16T20:54:02;14.00;99.90
20155;DHT22;10238;49.556;10.956;2022-10-16T20:56:52;14.00;99.90
20155;DHT22;10238;49.556;10.956;2022-10-16T20:59:40;13.90;99.90
20155;DHT22;10238;49.556;10.956;2022-10-16T21:02:27;13.90;99.90
20155;DHT22;10238;49.556;10.956;2022-10-16T21:05:15;13.80;99.90
20155;DHT22;10238;49.556;10.956;2022-10-16T21:08:02;13.80;99.90
20155;DHT22;10238;49.556;10.956;2022-10-16T21:10:50;13.80;99.90
20155;DHT22;10238;49.556;10.956;2022-10-16T21:13:42;13.70;99.90
20155;DHT22;10238;49.556;10.956;2022-10-16T21:16:30;13.70;99.90
20155;DHT22;10238;49.556;10.956;2022-10-16T21:19:17;13.60;99.90
20155;DHT22;10238;49.556;10.956;2022-10-16T21:22:05;13.60;99.90
20155;DHT22;10238;49.556;10.956;2022-10-16T21:24:53;13.60;99.90
20155;DHT22;10238;49.556;10.956;2022-10-16T21:27:41;13.60;99.90
20155;DHT22;10238;49.556;10.956;2022-10-16T21:30:30;13.50;99.90
20155;DHT22;10238;49.556;10.956;2022-10-16T21:33:18;13.40;99.90
20155;DHT22;10238;49.556;10.956;2022-10-16T21:36:11;13.40;99.90
20155;DHT22;10238;49.556;10.956;2022-10-16T21:39:01;13.30;99.90
20155;DHT22;10238;49.556;10.956;2022-10-16T21:41:51;13.30;99.90
20155;DHT22;10238;49.556;10.956;2022-10-16T21:44:43;13.30;99.90
20155;DHT22;10238;49.556;10.956;2022-10-16T21:47:32;13.20;99.90
20155;DHT22;10238;49.556;10.956;2022-10-16T21:50:21;13.20;99.90
20155;DHT22;10238;49.556;10.956;2022-10-16T21:53:09;13.20;99.90
20155;DHT22;10238;49.556;10.956;2022-10-16T21:55:56;13.10;99.90
20155;DHT22;10238;49.556;10.956;2022-10-16T21:58:44;13.10;99.90
20155;DHT22;10238;49.556;10.956;2022-10-16T22:01:33;13.10;99.90
20155;DHT22;10238;49.556;10.956;2022-10-16T22:04:22;13.00;99.90
20155;DHT22;10238;49.556;10.956;2022-10-16T22:07:09;13.00;99.90
20155;DHT22;10238;49.556;10.956;2022-10-16T22:09:57;13.00;99.90
20155;DHT22;10238;49.556;10.956;2022-10-16T22:12:44;12.90;99.90
20155;DHT22;10238;49.556;10.956;2022-10-16T22:15:32;12.90;99.90
20155;DHT22;10238;49.556;10.956;2022-10-16T22:18:19;12.90;99.90
20155;DHT22;10238;49.556;10.956;2022-10-16T22:21:08;12.80;99.90
20155;DHT22;10238;49.556;10.956;2022-10-16T22:23:57;12.80;99.90
20155;DHT22;10238;49.556;10.956;2022-10-16T22:26:45;12.70;99.90
20155;DHT22;10238;49.556;10.956;2022-10-16T22:29:33;12.70;99.90
20155;DHT22;10238;49.556;10.956;2022-10-16T22:32:20;12.70;99.90
20155;DHT22;10238;49.556;10.956;2022-10-16T22:35:08;12.60;99.90
20155;DHT22;10238;49.556;10.956;2022-10-16T22:37:59;12.60;99.90
20155;DHT22;10238;49.556;10.956;2022-10-16T22:40:46;12.50;99.90
20155;DHT22;10238;49.556;10.956;2022-10-16T22:43:36;12.40;99.90
20155;DHT22;10238;49.556;10.956;2022-10-16T22:46:26;12.50;99.90
20155;DHT22;10238;49.556;10.956;2022-10-16T22:49:16;12.40;99.90
20155;DHT22;10238;49.556;10.956;2022-10-16T22:52:05;12.40;99.90
20155;DHT22;10238;49.556;10.956;2022-10-16T22:54:54;12.40;99.90
20155;DHT22;10238;49.556;10.956;2022-10-16T22:57:42;12.30;99.90
20155;DHT22;10238;49.556;10.956;2022-10-16T23:00:29;12.30;99.90
20155;DHT22;10238;49.556;10.956;2022-10-16T23:03:17;12.20;99.90
20155;DHT22;10238;49.556;10.956;2022-10-16T23:06:05;12.20;99.90
20155;DHT22;10238;49.556;10.956;2022-10-16T23:08:53;12.20;99.90
20155;DHT22;10238;49.556;10.956;2022-10-16T23:11:43;12.10;99.90
20155;DHT22;10238;49.556;10.956;2022-10-16T23:14:31;12.10;99.90
20155;DHT22;10238;49.556;10.956;2022-10-16T23:17:18;12.10;99.90
20155;DHT22;10238;49.556;10.956;2022-10-16T23:20:09;12.00;99.90
20155;DHT22;10238;49.556;10.956;2022-10-16T23:22:57;12.00;99.90
20155;DHT22;10238;49.556;10.956;2022-10-16T23:25:47;12.00;99.90
20155;DHT22;10238;49.556;10.956;2022-10-16T23:28:35;11.90;99.90
20155;DHT22;10238;49.556;10.956;2022-10-16T23:31:24;11.90;99.90
20155;DHT22;10238;49.556;10.956;2022-10-16T23:34:13;11.90;99.90
20155;DHT22;10238;49.556;10.956;2022-10-16T23:37:00;11.80;99.90
20155;DHT22;10238;49.556;10.956;2022-10-16T23:39:49;11.80;99.90
20155;DHT22;10238;49.556;10.956;2022-10-16T23:42:36;11.80;99.90
20155;DHT22;10238;49.556;10.956;2022-10-16T23:45:25;11.70;99.90
20155;DHT22;10238;49.556;10.956;2022-10-16T23:48:13;11.70;99.90
20155;DHT22;10238;49.556;10.956;2022-10-16T23:51:00;11.70;99.90
20155;DHT22;10238;49.556;10.956;2022-10-16T23:53:48;11.70;99.90
20155;DHT22;10238;49.556;10.956;2022-10-16T23:56:36;11.60;99.90
20155;DHT22;10238;49.556;10.956;2022-10-16T23:59:23;11.60;99.90
